Time;durP1;ratioP1;P1;durP2;ratioP2;P2;SDS_P1;SDS_P2;PMS_P1;PMS_P2;Temp;Humidity;BMP_temperature;BMP_pressure;BME280_temperature;BME280_humidity;BME280_pressure;Samples;Min_cycle;Max_cycle;Signal;HPM_P1;HPM_P2
2023/02/20 00:02:17;;;;;;;4.30;3.07;;;8.90;1.00;;;;;;5097748;28;20187;-42
2023/02/20 00:04:43;;;;;;;4.10;3.50;;;8.90;1.00;;;;;;5097461;28;20257;-41
2023/02/20 00:07:08;;;;;;;4.63;3.10;;;9.00;1.00;;;;;;5097517;28;20202;-43
2023/02/20 00:09:34;;;;;;;3.73;3.10;;;8.90;1.00;;;;;;5099583;28;20200;-41
2023/02/20 00:12:00;;;;;;;3.70;3.30;;;8.90;1.00;;;;;;5098514;28;20523;-42
2023/02/20 00:14:25;;;;;;;8.30;4.00;;;8.90;1.00;;;;;;5098858;28;20232;-45
2023/02/20 00:16:51;;;;;;;4.33;3.30;;;9.00;1.00;;;;;;5098604;28;20210;-42
2023/02/20 00:19:16;;;;;;;4.30;3.50;;;9.00;1.00;;;;;;5099009;28;20555;-42
2023/02/20 00:21:46;;;;;;;5.10;4.53;;;8.90;99.90;;;;;;5099436;28;20184;-42
2023/02/20 00:24:13;;;;;;;4.00;3.37;;;8.90;1.00;;;;;;5099739;28;20222;-42
2023/02/20 00:26:38;;;;;;;6.07;3.90;;;9.00;99.90;;;;;;5098991;28;20791;-42
2023/02/20 00:29:04;;;;;;;6.43;5.10;;;9.00;99.90;;;;;;5098564;28;20459;-42
2023/02/20 00:31:30;;;;;;;6.03;3.50;;;8.90;99.90;;;;;;5099762;28;20242;-41
2023/02/20 00:33:55;;;;;;;5.73;4.20;;;9.00;99.90;;;;;;5100428;28;20265;-42
2023/02/20 00:36:21;;;;;;;4.63;3.50;;;8.90;99.90;;;;;;5099979;28;20176;-41
2023/02/20 00:38:47;;;;;;;5.47;3.50;;;8.90;99.90;;;;;;5099368;28;20497;-42
2023/02/20 00:41:14;;;;;;;6.57;3.90;;;8.90;99.90;;;;;;5100395;28;20199;-41
2023/02/20 00:43:40;;;;;;;4.50;3.77;;;8.90;99.90;;;;;;5100057;28;20200;-44
2023/02/20 00:46:06;;;;;;;5.20;3.60;;;8.90;99.90;;;;;;5100092;28;20446;-42
2023/02/20 00:48:31;;;;;;;4.70;3.20;;;8.90;99.90;;;;;;5099921;28;20501;-43
2023/02/20 00:50:57;;;;;;;8.03;4.00;;;8.90;99.90;;;;;;5099518;28;20176;-42
2023/02/20 00:53:23;;;;;;;5.97;3.60;;;8.90;96.60;;;;;;5099996;28;20232;-42
2023/02/20 00:55:48;;;;;;;7.43;3.73;;;8.90;50.30;;;;;;5099714;28;20172;-42
2023/02/20 00:58:14;;;;;;;4.40;3.50;;;9.00;1.00;;;;;;5099482;28;20242;-42
2023/02/20 01:00:39;;;;;;;5.23;3.40;;;8.90;1.00;;;;;;5100051;28;20286;-52
2023/02/20 01:03:05;;;;;;;4.40;2.90;;;8.90;1.00;;;;;;5100257;28;20542;-43
2023/02/20 01:05:31;;;;;;;5.37;3.33;;;8.90;1.00;;;;;;5099103;28;20164;-42
2023/02/20 01:07:56;;;;;;;5.27;3.10;;;8.90;1.00;;;;;;5099921;28;20274;-51
2023/02/20 01:10:22;;;;;;;4.40;3.10;;;8.90;1.00;;;;;;5099926;28;20259;-41
2023/02/20 01:12:48;;;;;;;4.90;3.40;;;8.90;1.00;;;;;;5098648;28;20265;-42
2023/02/20 01:15:14;;;;;;;4.87;3.50;;;9.00;1.00;;;;;;5098769;28;20484;-42
2023/02/20 01:17:40;;;;;;;3.83;3.27;;;9.00;1.00;;;;;;5098333;28;20411;-41
2023/02/20 01:20:07;;;;;;;9.90;3.60;;;8.90;1.00;;;;;;5098298;28;20442;-42
2023/02/20 01:22:33;;;;;;;5.40;3.47;;;9.00;1.00;;;;;;5081906;28;20214;-42
2023/02/20 01:24:59;;;;;;;6.07;3.60;;;9.00;1.00;;;;;;5099882;28;20784;-41
2023/02/20 01:27:25;;;;;;;4.57;3.70;;;9.00;1.00;;;;;;5098120;28;20236;-40
2023/02/20 01:29:51;;;;;;;4.60;3.57;;;9.00;1.00;;;;;;5099637;28;20516;-41
2023/02/20 01:32:16;;;;;;;7.93;4.20;;;8.90;1.00;;;;;;5098687;28;20431;-43
2023/02/20 01:34:42;;;;;;;4.90;3.63;;;8.90;1.00;;;;;;5099762;28;20176;-43
2023/02/20 01:37:12;;;;;;;5.63;3.90;;;8.90;1.00;;;;;;5098900;28;20487;-43
2023/02/20 01:39:38;;;;;;;4.47;3.37;;;9.00;1.00;;;;;;5099148;28;20196;-42
2023/02/20 01:42:06;;;;;;;8.80;3.93;;;8.90;1.00;;;;;;5097597;28;20913;-41
2023/02/20 01:44:36;;;;;;;8.20;4.33;;;8.90;1.00;;;;;;5098613;28;20526;-43
2023/02/20 01:47:22;;;;;;;5.03;3.30;;;9.00;1.00;;;;;;5097826;28;20824;-42
2023/02/20 01:49:56;;;;;;;4.20;3.63;;;9.00;1.00;;;;;;5096652;28;20531;-42
2023/02/20 01:52:26;;;;;;;6.00;3.90;;;9.00;1.00;;;;;;5097462;28;20581;-42
2023/02/20 01:55:10;;;;;;;4.67;3.50;;;9.00;99.90;;;;;;5098373;28;20446;-44
2023/02/20 01:57:39;;;;;;;5.17;3.07;;;8.90;99.90;;;;;;5096979;28;20438;-43
2023/02/20 02:00:11;;;;;;;5.57;3.70;;;8.90;99.90;;;;;;5098349;28;20432;-43
2023/02/20 02:02:39;;;;;;;4.77;3.30;;;8.90;99.90;;;;;;5095939;28;20450;-42
2023/02/20 02:05:07;;;;;;;3.50;3.10;;;9.00;99.90;;;;;;5095921;28;20684;-44
2023/02/20 02:07:32;;;;;;;4.77;3.23;;;8.90;99.90;;;;;;5097587;28;20450;-42
2023/02/20 02:10:05;;;;;;;6.47;3.73;;;8.90;99.90;;;;;;5096776;28;20519;-41
2023/02/20 02:12:31;;;;;;;8.23;3.53;;;8.90;99.90;;;;;;5097178;28;20223;-42
2023/02/20 02:14:57;;;;;;;4.50;3.20;;;8.90;99.90;;;;;;5097604;28;20434;-42
2023/02/20 02:17:32;;;;;;;5.53;3.80;;;8.90;99.90;;;;;;5097456;28;20486;-42
2023/02/20 02:20:23;;;;;;;4.83;3.13;;;8.90;99.90;;;;;;5097181;28;20175;-41
2023/02/20 02:23:26;;;;;;;3.60;3.00;;;8.90;99.90;;;;;;5096671;28;20434;-42
2023/02/20 02:25:59;;;;;;;7.83;3.57;;;8.80;99.90;;;;;;5097059;28;20402;-42
2023/02/20 02:28:27;;;;;;;4.83;3.13;;;8.80;99.90;;;;;;5097130;28;20485;-41
2023/02/20 02:31:30;;;;;;;4.83;3.00;;;8.80;99.90;;;;;;5096212;28;20434;-44
2023/02/20 02:34:13;;;;;;;3.83;3.03;;;8.80;1.00;;;;;;5092395;28;20767;-42
2023/02/20 02:36:45;;;;;;;4.40;3.40;;;8.80;1.00;;;;;;5097516;28;20529;-43
2023/02/20 02:39:33;;;;;;;4.80;3.33;;;8.80;1.00;;;;;;5096852;28;20430;-43
2023/02/20 02:42:09;;;;;;;4.20;2.90;;;8.70;17.30;;;;;;5096017;28;20426;-42
2023/02/20 02:45:16;;;;;;;4.10;2.93;;;8.70;64.00;;;;;;5096951;28;20418;-44
2023/02/20 02:48:02;;;;;;;5.90;3.00;;;8.70;99.90;;;;;;5055441;28;20455;-43
2023/02/20 02:50:35;;;;;;;4.97;3.27;;;8.70;99.90;;;;;;5093751;28;20425;-44
2023/02/20 02:53:02;;;;;;;4.30;3.30;;;8.70;99.90;;;;;;5096777;28;20433;-41
2023/02/20 02:55:30;;;;;;;6.17;3.20;;;8.70;99.90;;;;;;5096918;28;20509;-42
2023/02/20 02:57:56;;;;;;;7.97;3.53;;;8.70;99.90;;;;;;5096652;28;20423;-42
2023/02/20 03:00:29;;;;;;;6.70;3.53;;;8.70;99.90;;;;;;5097610;28;20421;-41
2023/02/20 03:03:20;;;;;;;6.50;2.97;;;8.70;99.90;;;;;;5100187;28;20430;-43
2023/02/20 03:06:01;;;;;;;4.63;3.83;;;8.60;99.90;;;;;;5096354;28;20419;-42
2023/02/20 03:08:44;;;;;;;6.40;3.53;;;8.60;99.90;;;;;;5099545;28;20912;-42
2023/02/20 03:11:19;;;;;;;4.80;3.80;;;8.60;99.90;;;;;;5100681;28;20406;-42
2023/02/20 03:16:58;;;;;;;5.97;3.70;;;8.60;99.90;;;;;;5099475;28;20477;-43
2023/02/20 03:19:37;;;;;;;4.60;3.40;;;8.60;99.90;;;;;;5098467;28;20414;-44
2023/02/20 03:22:11;;;;;;;5.40;3.50;;;8.50;99.90;;;;;;5097998;28;20441;-42
2023/02/20 03:24:56;;;;;;;3.63;3.13;;;8.50;99.90;;;;;;5096097;28;20424;-42
2023/02/20 03:27:37;;;;;;;5.93;3.67;;;8.50;99.90;;;;;;5095409;28;20481;-42
2023/02/20 03:30:10;;;;;;;3.97;3.00;;;8.50;99.90;;;;;;5095487;28;20454;-43
2023/02/20 03:43:39;;;;;;;6.67;3.40;;;8.40;99.90;;;;;;5098824;28;20421;-43
2023/02/20 03:46:10;;;;;;;5.77;3.33;;;8.40;99.90;;;;;;5099672;28;20410;-41
2023/02/20 03:48:41;;;;;;;4.20;3.40;;;8.30;99.90;;;;;;5099950;28;20544;-41
2023/02/20 03:51:07;;;;;;;6.33;4.10;;;8.30;99.90;;;;;;5099398;28;20394;-41
2023/02/20 03:53:32;;;;;;;9.33;4.03;;;8.30;99.90;;;;;;5098273;28;20426;-42
2023/02/20 03:56:00;;;;;;;5.90;3.33;;;8.30;99.90;;;;;;5099321;28;20196;-41
2023/02/20 03:58:26;;;;;;;4.47;3.73;;;8.20;99.90;;;;;;5097400;28;20192;-42
2023/02/20 04:00:54;;;;;;;5.70;3.90;;;8.20;99.90;;;;;;5098860;28;20484;-41
2023/02/20 04:03:24;;;;;;;4.43;3.33;;;8.20;99.90;;;;;;5097120;28;20422;-42
2023/02/20 04:05:53;;;;;;;4.97;3.33;;;8.10;99.90;;;;;;5097085;28;20471;-42
2023/02/20 04:08:20;;;;;;;5.03;3.70;;;8.10;99.90;;;;;;5096599;28;20476;-44
2023/02/20 04:10:52;;;;;;;6.90;4.07;;;8.10;99.90;;;;;;5096689;28;20842;-43
2023/02/20 04:13:19;;;;;;;5.30;3.40;;;8.00;1.00;;;;;;5093229;28;20524;-44
2023/02/20 04:15:45;;;;;;;9.73;4.20;;;8.00;1.00;;;;;;5093144;28;20829;-41
2023/02/20 04:18:14;;;;;;;7.27;3.47;;;7.90;1.00;;;;;;5093775;28;20507;-41
2023/02/20 04:20:39;;;;;;;4.60;3.70;;;7.90;1.00;;;;;;5093136;28;20828;-42
2023/02/20 04:23:13;;;;;;;5.67;3.50;;;7.80;1.00;;;;;;5093169;28;20437;-41
2023/02/20 04:25:49;;;;;;;4.87;3.40;;;7.80;1.00;;;;;;5093476;28;20165;-42
2023/02/20 04:28:16;;;;;;;7.10;3.87;;;7.80;1.00;;;;;;5094009;28;20524;-41
2023/02/20 04:30:42;;;;;;;6.40;4.20;;;7.80;1.00;;;;;;5097264;28;20832;-43
2023/02/20 04:33:11;;;;;;;7.07;3.60;;;7.70;99.90;;;;;;5094747;28;20462;-43
2023/02/20 04:35:36;;;;;;;7.23;3.47;;;7.70;99.90;;;;;;5096636;28;20443;-42
2023/02/20 04:38:02;;;;;;;8.00;3.90;;;7.60;99.90;;;;;;5097914;28;20431;-42
2023/02/20 04:40:28;;;;;;;6.50;3.70;;;7.60;99.90;;;;;;5098016;28;20164;-42
2023/02/20 04:42:54;;;;;;;3.80;3.43;;;7.60;1.00;;;;;;5097863;28;20704;-42
2023/02/20 04:45:19;;;;;;;5.73;3.40;;;7.50;1.00;;;;;;5098213;28;20164;-41
2023/02/20 04:47:45;;;;;;;11.63;4.30;;;7.50;1.00;;;;;;5098578;28;20260;-42
2023/02/20 04:50:30;;;;;;;5.83;3.60;;;7.50;1.00;;;;;;5099394;28;20179;-41
2023/02/20 04:52:56;;;;;;;6.20;3.43;;;7.40;1.00;;;;;;5099183;28;20172;-42
2023/02/20 04:55:22;;;;;;;6.20;4.00;;;7.40;1.00;;;;;;5098836;28;20426;-42
2023/02/20 04:57:48;;;;;;;7.63;4.10;;;7.40;1.00;;;;;;5098362;28;20472;-41
2023/02/20 05:00:16;;;;;;;6.03;4.33;;;7.30;1.00;;;;;;5098506;28;20195;-41
2023/02/20 05:02:42;;;;;;;5.30;3.93;;;7.30;1.00;;;;;;5098108;28;20433;-42
2023/02/20 05:05:19;;;;;;;4.70;3.60;;;7.30;1.00;;;;;;5098485;28;20406;-42
2023/02/20 05:07:45;;;;;;;7.13;3.70;;;7.30;1.00;;;;;;5098373;28;20568;-42
2023/02/20 05:10:20;;;;;;;5.10;3.97;;;7.20;14.00;;;;;;5097660;28;20426;-43
2023/02/20 05:12:46;;;;;;;5.60;3.53;;;7.20;67.70;;;;;;5097234;28;20588;-43
2023/02/20 05:15:12;;;;;;;7.10;3.63;;;7.10;99.90;;;;;;5097560;28;20434;-40
2023/02/20 05:17:38;;;;;;;8.10;4.47;;;7.10;99.90;;;;;;5097382;28;20465;-41
2023/02/20 05:20:05;;;;;;;4.53;3.50;;;7.10;99.90;;;;;;5097055;28;20407;-42
2023/02/20 05:22:30;;;;;;;8.50;3.77;;;7.10;99.90;;;;;;5097277;28;20175;-43
2023/02/20 05:24:56;;;;;;;5.53;3.73;;;7.10;99.90;;;;;;5096619;28;20807;-41
2023/02/20 05:27:23;;;;;;;5.40;3.83;;;7.00;99.90;;;;;;5096182;28;20641;-41
2023/02/20 05:29:54;;;;;;;4.30;3.70;;;7.00;99.90;;;;;;5096922;28;20253;-41
2023/02/20 05:32:21;;;;;;;6.10;3.60;;;7.00;99.90;;;;;;5094472;28;20430;-41
2023/02/20 05:34:47;;;;;;;4.70;4.20;;;7.00;99.90;;;;;;5096009;28;20554;-42
2023/02/20 05:37:15;;;;;;;5.67;4.57;;;6.90;99.90;;;;;;5094845;28;20552;-41
2023/02/20 05:39:40;;;;;;;5.17;3.80;;;6.90;99.90;;;;;;5093459;28;20848;-42
2023/02/20 05:42:06;;;;;;;6.07;3.93;;;6.90;99.90;;;;;;5094390;28;20446;-44
2023/02/20 05:44:32;;;;;;;8.33;4.07;;;6.80;99.90;;;;;;5092909;28;20388;-41
2023/02/20 05:46:58;;;;;;;5.60;4.37;;;6.80;99.90;;;;;;5094122;28;20427;-42
2023/02/20 05:49:24;;;;;;;5.87;4.53;;;6.80;1.00;;;;;;5092938;28;20720;-42
2023/02/20 05:51:50;;;;;;;5.37;4.53;;;6.80;1.00;;;;;;5093376;28;20204;-43
2023/02/20 05:54:16;;;;;;;8.27;5.07;;;6.80;1.00;;;;;;5093512;28;20717;-41
2023/02/20 05:56:43;;;;;;;8.40;5.23;;;6.80;1.00;;;;;;5094770;28;20882;-42
2023/02/20 05:59:09;;;;;;;7.27;4.77;;;6.70;1.00;;;;;;5094832;28;20446;-42
2023/02/20 06:01:35;;;;;;;7.03;4.40;;;6.70;27.20;;;;;;5093856;28;20837;-40
2023/02/20 06:04:01;;;;;;;6.30;4.90;;;6.70;99.90;;;;;;5094773;28;20480;-41
2023/02/20 06:06:38;;;;;;;5.80;4.03;;;6.70;99.90;;;;;;5091664;28;20578;-42
2023/02/20 06:09:24;;;;;;;6.40;4.37;;;6.70;99.90;;;;;;5093827;28;20775;-41
2023/02/20 06:11:55;;;;;;;4.30;3.90;;;6.60;99.90;;;;;;5093127;28;20451;-41
2023/02/20 06:14:22;;;;;;;8.30;4.87;;;6.60;99.90;;;;;;5092950;28;20402;-41
2023/02/20 06:16:48;;;;;;;6.73;4.60;;;6.60;99.90;;;;;;5092864;28;20422;-42
2023/02/20 06:19:21;;;;;;;6.30;4.13;;;6.60;99.90;;;;;;5093528;28;20476;-41
2023/02/20 06:21:47;;;;;;;6.80;5.43;;;6.60;99.90;;;;;;5095139;28;20192;-40
2023/02/20 06:24:13;;;;;;;8.20;4.97;;;6.60;99.90;;;;;;5095714;28;20422;-41
2023/02/20 06:26:40;;;;;;;7.90;5.20;;;6.60;99.90;;;;;;5094177;28;20484;-42
2023/02/20 06:29:06;;;;;;;6.83;4.60;;;6.60;99.90;;;;;;5093710;28;20650;-40
2023/02/20 06:31:31;;;;;;;4.93;4.43;;;6.60;99.90;;;;;;5092122;28;20521;-40
2023/02/20 06:33:57;;;;;;;5.63;4.47;;;6.60;99.90;;;;;;5092807;28;20183;-41
2023/02/20 06:36:26;;;;;;;8.90;4.90;;;6.60;99.90;;;;;;5092357;28;20272;-41
2023/02/20 06:38:53;;;;;;;8.83;5.20;;;6.60;99.90;;;;;;5092111;28;20164;-42
2023/02/20 06:41:19;;;;;;;4.97;4.47;;;6.60;99.90;;;;;;5092313;28;20678;-41
2023/02/20 06:43:44;;;;;;;4.93;4.37;;;6.70;41.30;;;;;;5092846;28;20432;-41
2023/02/20 06:46:10;;;;;;;5.57;4.27;;;6.70;99.90;;;;;;5092778;28;20199;-42
2023/02/20 06:48:46;;;;;;;6.10;4.40;;;6.90;99.90;;;;;;5092003;28;20265;-42
2023/02/20 06:51:15;;;;;;;5.60;4.70;;;7.10;1.00;;;;;;5092589;28;20414;-41
2023/02/20 06:53:41;;;;;;;5.90;3.90;;;7.30;99.90;;;;;;5091513;28;20407;-43
2023/02/20 06:56:09;;;;;;;7.27;5.23;;;7.40;1.00;;;;;;5093434;28;20419;-41
2023/02/20 06:58:35;;;;;;;5.87;3.90;;;7.60;1.00;;;;;;5093939;28;20530;-40
2023/02/20 07:01:01;;;;;;;5.23;3.63;;;7.70;99.90;;;;;;5092771;28;20470;-41
2023/02/20 07:03:26;;;;;;;7.37;4.30;;;7.80;99.90;;;;;;5094664;28;20434;-40
2023/02/20 07:05:52;;;;;;;6.47;4.40;;;8.00;1.00;;;;;;5094802;28;20172;-41
2023/02/20 07:08:18;;;;;;;8.30;4.73;;;8.10;99.90;;;;;;5095122;28;20299;-42
2023/02/20 07:10:43;;;;;;;5.93;4.50;;;8.30;99.90;;;;;;5094210;28;20495;-44
2023/02/20 07:13:09;;;;;;;7.97;4.93;;;8.40;1.00;;;;;;5093989;28;20256;-40
2023/02/20 07:15:34;;;;;;;7.27;4.77;;;8.60;1.00;;;;;;5093883;28;20286;-40
2023/02/20 07:18:00;;;;;;;6.60;4.70;;;8.70;99.90;;;;;;5076805;28;20545;-40
2023/02/20 07:20:26;;;;;;;8.83;3.63;;;8.90;2.70;;;;;;5095327;28;20179;-43
2023/02/20 07:22:53;;;;;;;5.17;4.13;;;9.10;1.00;;;;;;5095125;28;20188;-40
2023/02/20 07:25:19;;;;;;;6.33;3.80;;;9.20;99.90;;;;;;5094978;28;20255;-41
2023/02/20 07:27:45;;;;;;;6.17;4.10;;;9.40;99.90;;;;;;5094837;28;20567;-41
2023/02/20 07:30:11;;;;;;;5.27;3.83;;;9.60;1.00;;;;;;5092125;28;20466;-43
2023/02/20 07:32:36;;;;;;;5.80;4.60;;;9.80;1.00;;;;;;5092156;28;20185;-41
2023/02/20 07:35:02;;;;;;;6.13;4.10;;;9.90;99.90;;;;;;5090609;28;20689;-41
2023/02/20 07:37:28;;;;;;;6.03;3.70;;;10.20;99.90;;;;;;5092009;28;20560;-41
2023/02/20 07:39:53;;;;;;;6.47;4.03;;;10.40;69.70;;;;;;5093472;28;20353;-41
2023/02/20 07:42:19;;;;;;;5.47;3.10;;;10.70;1.00;;;;;;5092595;28;20481;-41
2023/02/20 07:44:46;;;;;;;5.20;4.70;;;10.90;1.00;;;;;;5092052;28;20474;-41
2023/02/20 07:47:12;;;;;;;5.03;3.07;;;11.20;1.00;;;;;;5092926;28;20279;-41
2023/02/20 07:49:38;;;;;;;4.90;3.80;;;11.40;99.90;;;;;;5092666;28;20556;-43
2023/02/20 07:52:03;;;;;;;3.63;3.23;;;11.70;99.90;;;;;;5092423;28;20517;-41
2023/02/20 07:54:29;;;;;;;6.03;3.17;;;11.90;99.90;;;;;;5091198;28;20502;-41
2023/02/20 07:56:55;;;;;;;4.07;2.83;;;12.20;99.90;;;;;;5090552;28;20270;-41
2023/02/20 07:59:21;;;;;;;7.60;4.23;;;12.50;67.20;;;;;;5089422;28;20173;-41
2023/02/20 08:01:47;;;;;;;4.83;3.30;;;12.60;8.70;;;;;;5090531;28;20176;-42
2023/02/20 08:04:12;;;;;;;4.60;3.63;;;12.90;1.00;;;;;;5093247;28;20420;-41
2023/02/20 08:06:40;;;;;;;5.40;3.90;;;13.10;1.00;;;;;;5096222;28;20527;-43
2023/02/20 08:09:06;;;;;;;7.43;3.37;;;13.30;1.00;;;;;;5097018;28;20204;-44
2023/02/20 08:11:34;;;;;;;5.50;3.03;;;13.40;1.00;;;;;;5096492;28;20458;-42
2023/02/20 08:14:00;;;;;;;4.63;3.80;;;13.60;1.00;;;;;;5094605;28;20559;-43
2023/02/20 08:16:25;;;;;;;6.20;4.03;;;13.80;1.00;;;;;;5092805;28;20466;-43
2023/02/20 08:18:51;;;;;;;5.37;3.00;;;14.10;1.00;;;;;;5092190;28;20445;-42
2023/02/20 08:21:17;;;;;;;3.23;2.90;;;14.40;1.00;;;;;;5094586;28;20577;-41
2023/02/20 08:23:43;;;;;;;3.63;2.83;;;14.70;1.00;;;;;;5093278;28;20415;-40
2023/02/20 08:26:09;;;;;;;3.67;3.03;;;15.00;1.00;;;;;;5093074;28;20176;-42
2023/02/20 08:28:35;;;;;;;4.03;2.93;;;15.40;1.00;;;;;;5091856;28;20220;-42
2023/02/20 08:31:01;;;;;;;3.53;2.97;;;15.80;1.00;;;;;;5093599;28;20410;-41
2023/02/20 08:33:26;;;;;;;7.27;3.33;;;16.10;1.00;;;;;;5091459;28;20180;-43
2023/02/20 08:35:54;;;;;;;4.00;3.03;;;16.40;1.00;;;;;;5092847;28;20177;-40
2023/02/20 08:38:29;;;;;;;5.50;3.50;;;16.70;1.00;;;;;;5090777;28;20449;-41
2023/02/20 08:40:54;;;;;;;4.60;3.03;;;17.10;1.00;;;;;;5089797;28;20747;-43
2023/02/20 08:43:20;;;;;;;6.43;3.20;;;17.50;1.00;;;;;;5092629;28;20433;-42
2023/02/20 08:45:46;;;;;;;5.27;2.77;;;17.80;1.00;;;;;;5093842;28;20176;-42
2023/02/20 08:48:12;;;;;;;3.40;2.60;;;18.20;1.00;;;;;;5094574;28;20199;-42
2023/02/20 08:50:37;;;;;;;5.10;3.60;;;18.50;1.00;;;;;;5093376;28;20191;-43
2023/02/20 08:53:03;;;;;;;6.70;3.30;;;18.80;1.00;;;;;;5095517;28;20241;-41
2023/02/20 08:55:28;;;;;;;3.70;2.97;;;19.10;1.00;;;;;;5094770;28;20176;-41
2023/02/20 08:57:54;;;;;;;3.97;2.57;;;19.40;1.00;;;;;;5093473;28;20183;-41
2023/02/20 09:00:20;;;;;;;4.23;3.33;;;19.80;1.00;;;;;;5094220;28;20189;-41
2023/02/20 09:02:46;;;;;;;7.60;3.03;;;20.10;1.00;;;;;;5095688;28;20517;-43
2023/02/20 09:05:13;;;;;;;3.53;2.30;;;20.40;1.00;;;;;;5094339;28;20176;-43
2023/02/20 09:07:40;;;;;;;6.30;2.93;;;20.80;1.00;;;;;;5093600;28;20438;-42
2023/02/20 09:10:06;;;;;;;4.63;2.43;;;20.90;1.00;;;;;;5095072;28;20543;-41
2023/02/20 09:12:31;;;;;;;3.33;2.60;;;21.40;1.00;;;;;;5094002;28;20418;-42
2023/02/20 09:14:59;;;;;;;4.50;1.90;;;21.80;1.00;;;;;;5091632;28;20700;-43
2023/02/20 09:17:25;;;;;;;3.30;2.10;;;22.30;1.00;;;;;;5092470;28;20210;-41
2023/02/20 09:19:51;;;;;;;3.10;2.10;;;22.70;1.00;;;;;;5095111;28;20414;-42
2023/02/20 09:22:24;;;;;;;3.40;2.57;;;23.10;1.00;;;;;;5092947;28;20579;-41
2023/02/20 09:24:51;;;;;;;4.10;1.90;;;23.50;1.00;;;;;;5090242;28;20169;-41
2023/02/20 09:27:17;;;;;;;4.73;2.57;;;24.10;1.00;;;;;;5091919;28;20474;-43
2023/02/20 09:29:43;;;;;;;4.30;2.30;;;24.50;1.00;;;;;;5090066;28;20454;-44
2023/02/20 09:32:09;;;;;;;4.07;2.53;;;25.10;1.00;;;;;;5091075;28;20488;-43
2023/02/20 09:34:35;;;;;;;5.07;2.40;;;25.40;1.00;;;;;;5095142;28;20410;-43
2023/02/20 09:37:01;;;;;;;2.90;2.60;;;25.70;1.00;;;;;;5094641;28;20397;-42
2023/02/20 09:39:26;;;;;;;4.13;2.77;;;26.00;1.00;;;;;;5089960;28;20184;-42
2023/02/20 09:42:11;;;;;;;3.43;2.40;;;26.40;1.00;;;;;;5092018;28;20180;-44
2023/02/20 09:45:10;;;;;;;5.37;2.80;;;26.50;1.00;;;;;;5092244;28;20176;-44
2023/02/20 09:47:46;;;;;;;3.50;2.23;;;27.00;1.00;;;;;;5094462;28;20434;-41
2023/02/20 09:50:20;;;;;;;4.63;2.20;;;27.70;1.00;;;;;;5092833;28;20514;-43
2023/02/20 09:52:49;;;;;;;5.50;2.60;;;28.10;1.00;;;;;;5090848;28;20438;-45
2023/02/20 09:55:20;;;;;;;4.97;2.20;;;28.60;1.00;;;;;;5095409;28;20499;-43
2023/02/20 09:57:52;;;;;;;4.10;2.43;;;29.00;1.00;;;;;;5090413;28;20407;-43
2023/02/20 10:00:28;;;;;;;3.93;2.83;;;29.20;1.00;;;;;;5093881;28;20406;-43
2023/02/20 10:03:03;;;;;;;5.70;2.70;;;29.30;1.00;;;;;;5092590;28;20521;-43
2023/02/20 10:05:30;;;;;;;6.13;2.50;;;29.10;1.00;;;;;;5072830;28;20440;-43
2023/02/20 10:07:56;;;;;;;3.30;2.00;;;28.50;1.00;;;;;;5091907;28;20533;-43
2023/02/20 10:10:24;;;;;;;4.13;2.23;;;27.80;1.00;;;;;;5092784;28;20408;-43
2023/02/20 10:12:56;;;;;;;3.53;2.20;;;27.20;1.00;;;;;;5093953;28;20419;-43
2023/02/20 10:16:01;;;;;;;3.47;2.10;;;26.40;1.00;;;;;;5093629;28;20454;-43
2023/02/20 10:18:48;;;;;;;5.20;2.33;;;25.70;1.00;;;;;;5092960;28;20470;-44
2023/02/20 10:21:51;;;;;;;3.40;2.00;;;25.40;1.00;;;;;;5090101;28;20497;-42
2023/02/20 10:24:29;;;;;;;3.17;2.47;;;25.60;1.00;;;;;;5089170;28;20493;-42
2023/02/20 10:27:21;;;;;;;3.10;2.40;;;26.30;1.00;;;;;;5088617;28;21038;-44
2023/02/20 10:29:47;;;;;;;3.93;2.00;;;26.80;1.00;;;;;;5081752;28;20470;-42
2023/02/20 10:32:22;;;;;;;4.00;2.23;;;27.60;1.00;;;;;;5088914;28;20624;-43
2023/02/20 10:35:15;;;;;;;4.87;2.67;;;28.40;1.00;;;;;;5089297;28;20491;-43
2023/02/20 10:37:44;;;;;;;3.03;2.20;;;29.10;1.00;;;;;;5084765;28;20401;-44
2023/02/20 10:40:21;;;;;;;3.90;2.13;;;29.70;1.00;;;;;;5089908;28;20646;-43
2023/02/20 10:42:52;;;;;;;3.17;2.07;;;30.50;1.00;;;;;;5088852;28;20440;-42
2023/02/20 10:45:42;;;;;;;3.57;2.00;;;31.20;1.00;;;;;;5092746;28;20397;-43
2023/02/20 10:48:14;;;;;;;5.17;2.10;;;31.80;1.00;;;;;;5092596;28;20437;-48
2023/02/20 10:51:22;;;;;;;5.03;2.20;;;32.30;1.00;;;;;;5091923;28;20488;-44
2023/02/20 10:53:54;;;;;;;4.47;2.53;;;32.90;1.00;;;;;;5091318;28;20414;-42
2023/02/20 10:56:32;;;;;;;4.47;2.37;;;33.40;1.00;;;;;;5089761;28;20682;-41
2023/02/20 10:59:01;;;;;;;3.30;2.20;;;34.10;1.00;;;;;;5092849;28;20488;-44
2023/02/20 11:01:27;;;;;;;2.90;2.10;;;34.80;1.00;;;;;;5093944;28;20478;-43
2023/02/20 11:04:01;;;;;;;2.87;2.13;;;35.40;1.00;;;;;;5073785;28;20446;-42
2023/02/20 11:06:37;;;;;;;3.17;2.03;;;36.00;1.00;;;;;;5094407;28;20528;-44
2023/02/20 11:09:03;;;;;;;4.07;2.20;;;36.70;1.00;;;;;;5091453;28;20454;-43
2023/02/20 11:11:32;;;;;;;3.60;2.00;;;37.30;1.00;;;;;;5090840;28;20448;-42
2023/02/20 11:14:08;;;;;;;3.43;2.23;;;37.80;1.00;;;;;;5073435;28;20237;-42
2023/02/20 11:17:07;;;;;;;3.20;1.60;;;38.30;1.00;;;;;;5092805;28;20477;-43
2023/02/20 11:20:03;;;;;;;5.20;1.90;;;38.80;1.00;;;;;;5091983;28;20491;-42
2023/02/20 11:22:47;;;;;;;4.07;1.83;;;39.40;1.00;;;;;;5083027;28;20444;-43
2023/02/20 11:25:26;;;;;;;2.87;1.67;;;39.70;1.00;;;;;;5098800;28;20692;-42
2023/02/20 11:28:20;;;;;;;3.30;1.53;;;40.00;1.00;;;;;;5097964;28;20500;-43
2023/02/20 11:31:05;;;;;;;3.73;2.10;;;40.20;1.00;;;;;;5097396;28;20836;-44
2023/02/20 11:33:35;;;;;;;2.40;1.40;;;40.50;1.00;;;;;;5094437;28;20583;-42
2023/02/20 11:36:11;;;;;;;4.60;1.60;;;40.70;1.00;;;;;;5094876;28;20402;-42
2023/02/20 11:38:37;;;;;;;3.27;1.50;;;40.70;1.00;;;;;;5093758;28;20429;-44
2023/02/20 11:41:03;;;;;;;1.97;1.13;;;40.80;1.00;;;;;;5095389;28;20662;-45
2023/02/20 11:43:42;;;;;;;3.87;1.60;;;41.00;1.00;;;;;;5093755;28;20477;-42
2023/02/20 11:46:09;;;;;;;3.40;1.07;;;41.00;1.00;;;;;;5093179;28;20439;-44
2023/02/20 11:48:35;;;;;;;3.40;1.37;;;41.30;1.00;;;;;;5092200;28;20417;-43
2023/02/20 11:51:01;;;;;;;6.10;1.30;;;41.50;1.00;;;;;;5092149;28;20463;-45
2023/02/20 11:53:31;;;;;;;3.00;1.60;;;41.50;1.00;;;;;;5093333;28;20430;-42
2023/02/20 11:56:16;;;;;;;2.27;1.20;;;41.80;1.00;;;;;;5092469;28;20407;-43
2023/02/20 11:58:42;;;;;;;2.60;1.40;;;41.70;1.00;;;;;;5092612;28;20523;-42
2023/02/20 12:01:27;;;;;;;1.93;0.93;;;41.80;1.00;;;;;;5092445;28;20646;-42
2023/02/20 12:03:57;;;;;;;2.10;1.20;;;42.00;1.00;;;;;;5095545;28;20532;-43
2023/02/20 12:06:32;;;;;;;1.93;1.23;;;42.00;1.00;;;;;;5093705;28;20478;-43
2023/02/20 12:08:59;;;;;;;3.20;1.20;;;42.40;1.00;;;;;;5093192;28;20414;-44
2023/02/20 12:11:26;;;;;;;2.53;1.10;;;42.50;1.00;;;;;;5094073;28;20426;-44
2023/02/20 12:13:54;;;;;;;3.97;1.27;;;42.70;1.00;;;;;;5094749;28;20579;-44
2023/02/20 12:16:37;;;;;;;2.10;1.00;;;42.80;1.00;;;;;;5094501;28;20439;-43
2023/02/20 12:19:20;;;;;;;2.63;1.27;;;42.80;1.00;;;;;;5096204;28;20638;-43
2023/02/20 12:22:06;;;;;;;2.33;1.23;;;43.00;1.00;;;;;;5093919;28;20425;-42
2023/02/20 12:24:55;;;;;;;1.97;1.10;;;43.20;1.00;;;;;;5092432;28;20643;-44
2023/02/20 12:27:32;;;;;;;2.20;1.03;;;43.50;1.00;;;;;;5093427;28;20537;-43
2023/02/20 12:30:16;;;;;;;1.80;1.20;;;43.90;1.00;;;;;;5091903;28;20723;-44
2023/02/20 12:33:23;;;;;;;2.50;1.60;;;44.00;1.00;;;;;;5092708;28;20746;-42
2023/02/20 12:36:26;;;;;;;2.57;1.10;;;44.10;1.00;;;;;;5071626;28;20410;-42
2023/02/20 12:39:16;;;;;;;2.20;1.30;;;44.40;1.00;;;;;;5094007;28;20532;-44
2023/02/20 12:42:16;;;;;;;2.17;1.30;;;44.50;1.00;;;;;;5096014;28;20418;-44
2023/02/20 12:45:17;;;;;;;2.30;1.10;;;44.60;1.00;;;;;;5096070;28;20788;-44
2023/02/20 12:47:44;;;;;;;1.47;0.90;;;44.80;1.00;;;;;;5095400;28;20445;-48
2023/02/20 12:50:40;;;;;;;2.67;1.20;;;45.00;1.00;;;;;;5096016;28;20410;-43
2023/02/20 12:53:09;;;;;;;3.07;1.23;;;45.00;1.00;;;;;;5094289;28;20895;-44
2023/02/20 12:55:46;;;;;;;1.90;1.30;;;45.30;1.00;;;;;;5093289;28;20427;-46
2023/02/20 12:58:41;;;;;;;1.70;1.27;;;45.40;1.00;;;;;;5079511;28;20446;-43
2023/02/20 13:01:10;;;;;;;1.90;1.40;;;45.50;1.00;;;;;;5087127;28;20836;-43
2023/02/20 13:03:44;;;;;;;2.83;1.10;;;45.90;1.00;;;;;;5091129;28;20407;-46
2023/02/20 13:06:11;;;;;;;2.00;1.20;;;46.00;1.00;;;;;;5091383;28;20543;-46
2023/02/20 13:09:20;;;;;;;5.60;2.60;;;46.20;1.00;;;;;;5092461;28;20414;-43
2023/02/20 13:11:50;;;;;;;3.93;3.63;;;46.00;1.00;;;;;;5082027;28;20860;-44
2023/02/20 13:14:22;;;;;;;3.60;3.30;;;46.20;1.00;;;;;;5091188;28;20414;-44
2023/02/20 13:17:24;;;;;;;3.43;2.57;;;46.50;1.00;;;;;;5094512;28;20422;-46
2023/02/20 13:20:09;;;;;;;2.10;1.30;;;46.30;1.00;;;;;;5090996;28;20457;-44
2023/02/20 13:22:34;;;;;;;5.53;1.40;;;46.10;1.00;;;;;;5091591;28;20457;-43
2023/02/20 13:25:40;;;;;;;2.60;1.67;;;46.30;1.00;;;;;;5092893;28;20505;-43
2023/02/20 13:28:11;;;;;;;3.27;2.20;;;46.20;1.00;;;;;;5093215;28;20224;-44
2023/02/20 13:30:38;;;;;;;2.33;1.53;;;46.30;1.00;;;;;;5092829;28;20411;-43
2023/02/20 13:33:21;;;;;;;2.53;1.13;;;46.30;1.00;;;;;;5093780;28;20430;-45
2023/02/20 13:35:52;;;;;;;2.17;1.50;;;46.50;1.00;;;;;;5093737;28;20395;-44
2023/02/20 13:38:20;;;;;;;1.80;1.20;;;46.20;1.00;;;;;;5092127;28;20417;-43